sensor_id;sensor_type;location;lat;lon;timestamp;temperature;humidity
53876;DHT22;39789;53.216;5.624;2022-11-21T00:01:44;2.10;99.90
53876;DHT22;39789;53.216;5.624;2022-11-21T00:04:09;2.10;99.90
53876;DHT22;39789;53.216;5.624;2022-11-21T00:06:35;2.10;99.90
53876;DHT22;39789;53.216;5.624;2022-11-21T00:09:00;2.80;99.90
53876;DHT22;39789;53.216;5.624;2022-11-21T00:11:26;2.00;99.90
53876;DHT22;39789;53.216;5.624;2022-11-21T00:13:51;2.00;99.90
53876;DHT22;39789;53.216;5.624;2022-11-21T00:16:17;2.30;99.90
53876;DHT22;39789;53.216;5.624;2022-11-21T00:18:42;2.00;99.90
53876;DHT22;39789;53.216;5.624;2022-11-21T00:21:13;2.00;99.90
53876;DHT22;39789;53.216;5.624;2022-11-21T00:23:39;2.00;99.90
53876;DHT22;39789;53.216;5.624;2022-11-21T00:26:06;2.00;99.90
53876;DHT22;39789;53.216;5.624;2022-11-21T00:28:32;2.30;99.90
53876;DHT22;39789;53.216;5.624;2022-11-21T00:30:58;2.30;99.90
53876;DHT22;39789;53.216;5.624;2022-11-21T00:33:24;2.10;99.90
53876;DHT22;39789;53.216;5.624;2022-11-21T00:35:49;2.80;99.90
53876;DHT22;39789;53.216;5.624;2022-11-21T00:38:15;1.90;99.90
53876;DHT22;39789;53.216;5.624;2022-11-21T00:40:44;1.90;99.90
53876;DHT22;39789;53.216;5.624;2022-11-21T00:43:09;1.90;99.90
53876;DHT22;39789;53.216;5.624;2022-11-21T00:45:35;2.30;99.90
53876;DHT22;39789;53.216;5.624;2022-11-21T00:48:01;2.70;99.90
53876;DHT22;39789;53.216;5.624;2022-11-21T00:50:27;2.60;99.90
53876;DHT22;39789;53.216;5.624;2022-11-21T00:52:57;1.90;99.90
53876;DHT22;39789;53.216;5.624;2022-11-21T00:55:25;2.00;99.90
53876;DHT22;39789;53.216;5.624;2022-11-21T00:57:51;2.00;99.90
53876;DHT22;39789;53.216;5.624;2022-11-21T01:00:17;2.60;99.90
53876;DHT22;39789;53.216;5.624;2022-11-21T01:02:43;2.00;99.90
53876;DHT22;39789;53.216;5.624;2022-11-21T01:05:08;2.00;99.90
53876;DHT22;39789;53.216;5.624;2022-11-21T01:07:34;2.00;99.90
53876;DHT22;39789;53.216;5.624;2022-11-21T01:10:00;1.90;99.90
53876;DHT22;39789;53.216;5.624;2022-11-21T01:12:25;1.90;99.90
53876;DHT22;39789;53.216;5.624;2022-11-21T01:14:51;2.60;99.90
53876;DHT22;39789;53.216;5.624;2022-11-21T01:17:17;1.90;99.90
53876;DHT22;39789;53.216;5.624;2022-11-21T01:19:42;1.90;99.90
53876;DHT22;39789;53.216;5.624;2022-11-21T01:22:08;1.90;99.90
53876;DHT22;39789;53.216;5.624;2022-11-21T01:24:33;1.90;99.90
53876;DHT22;39789;53.216;5.624;2022-11-21T01:26:59;2.00;99.90
53876;DHT22;39789;53.216;5.624;2022-11-21T01:29:24;2.30;99.90
53876;DHT22;39789;53.216;5.624;2022-11-21T01:31:51;1.90;99.90
53876;DHT22;39789;53.216;5.624;2022-11-21T01:34:17;2.40;99.90
53876;DHT22;39789;53.216;5.624;2022-11-21T01:36:43;1.90;99.90
53876;DHT22;39789;53.216;5.624;2022-11-21T01:39:10;1.80;99.90
53876;DHT22;39789;53.216;5.624;2022-11-21T01:41:41;1.80;99.90
53876;DHT22;39789;53.216;5.624;2022-11-21T01:44:20;1.90;99.90
53876;DHT22;39789;53.216;5.624;2022-11-21T01:46:47;1.70;99.90
53876;DHT22;39789;53.216;5.624;2022-11-21T01:49:20;1.70;99.90
53876;DHT22;39789;53.216;5.624;2022-11-21T01:51:50;1.60;99.90
53876;DHT22;39789;53.216;5.624;2022-11-21T01:54:48;1.50;99.90
53876;DHT22;39789;53.216;5.624;2022-11-21T01:57:38;1.40;99.90
53876;DHT22;39789;53.216;5.624;2022-11-21T02:00:17;1.40;99.90
53876;DHT22;39789;53.216;5.624;2022-11-21T02:02:50;1.30;99.90
53876;DHT22;39789;53.216;5.624;2022-11-21T02:05:19;1.30;99.90
53876;DHT22;39789;53.216;5.624;2022-11-21T02:07:47;1.90;99.90
53876;DHT22;39789;53.216;5.624;2022-11-21T02:10:14;1.20;99.90
53876;DHT22;39789;53.216;5.624;2022-11-21T02:12:47;1.60;99.90
53876;DHT22;39789;53.216;5.624;2022-11-21T02:15:13;1.10;99.90
53876;DHT22;39789;53.216;5.624;2022-11-21T02:17:39;1.50;99.90
53876;DHT22;39789;53.216;5.624;2022-11-21T02:20:13;1.00;99.90
53876;DHT22;39789;53.216;5.624;2022-11-21T02:22:53;1.00;99.90
53876;DHT22;39789;53.216;5.624;2022-11-21T02:25:27;0.90;99.90
53876;DHT22;39789;53.216;5.624;2022-11-21T02:28:14;0.90;99.90
53876;DHT22;39789;53.216;5.624;2022-11-21T02:30:41;1.60;99.90
53876;DHT22;39789;53.216;5.624;2022-11-21T02:33:07;0.80;99.90
53876;DHT22;39789;53.216;5.624;2022-11-21T02:35:33;0.80;99.90
53876;DHT22;39789;53.216;5.624;2022-11-21T02:38:05;1.20;99.90
53876;DHT22;39789;53.216;5.624;2022-11-21T02:40:38;0.70;99.90
53876;DHT22;39789;53.216;5.624;2022-11-21T02:43:09;0.90;99.90
53876;DHT22;39789;53.216;5.624;2022-11-21T02:45:43;1.30;99.90
53876;DHT22;39789;53.216;5.624;2022-11-21T02:48:10;0.60;99.90
53876;DHT22;39789;53.216;5.624;2022-11-21T02:50:40;0.80;99.90
53876;DHT22;39789;53.216;5.624;2022-11-21T02:53:09;0.60;99.90
53876;DHT22;39789;53.216;5.624;2022-11-21T02:55:34;0.50;99.90
53876;DHT22;39789;53.216;5.624;2022-11-21T02:58:00;1.10;99.90
53876;DHT22;39789;53.216;5.624;2022-11-21T03:00:26;1.30;99.90
53876;DHT22;39789;53.216;5.624;2022-11-21T03:02:51;1.10;99.90
53876;DHT22;39789;53.216;5.624;2022-11-21T03:05:20;1.20;99.90
53876;DHT22;39789;53.216;5.624;2022-11-21T03:07:46;1.00;99.90
53876;DHT22;39789;53.216;5.624;2022-11-21T03:10:12;0.30;99.90
53876;DHT22;39789;53.216;5.624;2022-11-21T03:12:39;0.70;99.90
53876;DHT22;39789;53.216;5.624;2022-11-21T03:15:06;0.70;99.90
53876;DHT22;39789;53.216;5.624;2022-11-21T03:17:32;0.30;99.90
53876;DHT22;39789;53.216;5.624;2022-11-21T03:19:58;0.40;99.90
53876;DHT22;39789;53.216;5.624;2022-11-21T03:22:23;0.70;99.90
53876;DHT22;39789;53.216;5.624;2022-11-21T03:24:49;0.70;99.90
53876;DHT22;39789;53.216;5.624;2022-11-21T03:27:14;0.60;99.90
53876;DHT22;39789;53.216;5.624;2022-11-21T03:29:40;0.40;99.90
53876;DHT22;39789;53.216;5.624;2022-11-21T03:32:06;0.90;99.90
53876;DHT22;39789;53.216;5.624;2022-11-21T03:34:31;0.50;99.90
53876;DHT22;39789;53.216;5.624;2022-11-21T03:36:57;1.10;99.90
53876;DHT22;39789;53.216;5.624;2022-11-21T03:39:22;0.60;99.90
53876;DHT22;39789;53.216;5.624;2022-11-21T03:41:48;0.60;99.90
53876;DHT22;39789;53.216;5.624;2022-11-21T03:44:14;1.40;99.90
53876;DHT22;39789;53.216;5.624;2022-11-21T03:46:42;0.90;99.90
53876;DHT22;39789;53.216;5.624;2022-11-21T03:49:08;0.70;99.90
53876;DHT22;39789;53.216;5.624;2022-11-21T03:51:34;0.70;99.90
53876;DHT22;39789;53.216;5.624;2022-11-21T03:54:00;0.80;99.90
53876;DHT22;39789;53.216;5.624;2022-11-21T03:56:26;0.80;99.90
53876;DHT22;39789;53.216;5.624;2022-11-21T03:58:52;0.80;99.90
53876;DHT22;39789;53.216;5.624;2022-11-21T04:01:17;0.80;99.90
53876;DHT22;39789;53.216;5.624;2022-11-21T04:03:44;1.80;99.90
53876;DHT22;39789;53.216;5.624;2022-11-21T04:06:14;0.80;99.90
53876;DHT22;39789;53.216;5.624;2022-11-21T04:08:40;1.50;99.90
53876;DHT22;39789;53.216;5.624;2022-11-21T04:11:06;1.10;99.90
53876;DHT22;39789;53.216;5.624;2022-11-21T04:13:32;0.70;99.90
53876;DHT22;39789;53.216;5.624;2022-11-21T04:15:58;1.70;99.90
53876;DHT22;39789;53.216;5.624;2022-11-21T04:18:24;0.70;99.90
53876;DHT22;39789;53.216;5.624;2022-11-21T04:20:55;0.60;99.90
53876;DHT22;39789;53.216;5.624;2022-11-21T04:23:21;1.30;99.90
53876;DHT22;39789;53.216;5.624;2022-11-21T04:25:46;1.20;99.90
53876;DHT22;39789;53.216;5.624;2022-11-21T04:28:12;1.30;99.90
53876;DHT22;39789;53.216;5.624;2022-11-21T04:30:38;0.20;99.90
53876;DHT22;39789;53.216;5.624;2022-11-21T04:33:04;1.20;99.90
53876;DHT22;39789;53.216;5.624;2022-11-21T04:35:29;1.00;99.90
53876;DHT22;39789;53.216;5.624;2022-11-21T04:37:55;1.20;99.90
53876;DHT22;39789;53.216;5.624;2022-11-21T04:40:21;1.10;99.90
53876;DHT22;39789;53.216;5.624;2022-11-21T04:42:47;0.50;99.90
53876;DHT22;39789;53.216;5.624;2022-11-21T04:45:14;0.80;99.90
53876;DHT22;39789;53.216;5.624;2022-11-21T04:47:42;0.10;99.90
53876;DHT22;39789;53.216;5.624;2022-11-21T04:50:09;0.10;99.90
53876;DHT22;39789;53.216;5.624;2022-11-21T04:52:35;0.80;99.90
53876;DHT22;39789;53.216;5.624;2022-11-21T04:55:01;0.20;99.90
53876;DHT22;39789;53.216;5.624;2022-11-21T04:57:28;-0.10;99.90
53876;DHT22;39789;53.216;5.624;2022-11-21T04:59:54;-0.10;99.90
53876;DHT22;39789;53.216;5.624;2022-11-21T05:02:19;-0.10;99.90
53876;DHT22;39789;53.216;5.624;2022-11-21T05:04:45;0.80;99.90
53876;DHT22;39789;53.216;5.624;2022-11-21T05:07:11;-0.10;99.90
53876;DHT22;39789;53.216;5.624;2022-11-21T05:09:36;-0.20;99.90
53876;DHT22;39789;53.216;5.624;2022-11-21T05:12:02;-0.20;99.90
53876;DHT22;39789;53.216;5.624;2022-11-21T05:14:46;-0.30;99.90
53876;DHT22;39789;53.216;5.624;2022-11-21T05:17:12;-0.30;99.90
53876;DHT22;39789;53.216;5.624;2022-11-21T05:19:38;-0.30;99.90
53876;DHT22;39789;53.216;5.624;2022-11-21T05:22:03;0.90;99.90
53876;DHT22;39789;53.216;5.624;2022-11-21T05:24:29;-0.40;99.90
53876;DHT22;39789;53.216;5.624;2022-11-21T05:26:54;0.30;99.90
53876;DHT22;39789;53.216;5.624;2022-11-21T05:29:20;0.80;99.90
53876;DHT22;39789;53.216;5.624;2022-11-21T05:31:46;0.80;99.90
53876;DHT22;39789;53.216;5.624;2022-11-21T05:34:11;0.70;99.90
53876;DHT22;39789;53.216;5.624;2022-11-21T05:36:37;-0.20;99.90
53876;DHT22;39789;53.216;5.624;2022-11-21T05:39:02;0.40;99.90
53876;DHT22;39789;53.216;5.624;2022-11-21T05:41:28;0.80;99.90
53876;DHT22;39789;53.216;5.624;2022-11-21T05:43:54;0.80;99.90
53876;DHT22;39789;53.216;5.624;2022-11-21T05:46:22;0.60;99.90
53876;DHT22;39789;53.216;5.624;2022-11-21T05:48:48;0.10;99.90
53876;DHT22;39789;53.216;5.624;2022-11-21T05:51:15;0.20;99.90
53876;DHT22;39789;53.216;5.624;2022-11-21T05:53:41;0.30;99.90
53876;DHT22;39789;53.216;5.624;2022-11-21T05:56:09;0.50;99.90
53876;DHT22;39789;53.216;5.624;2022-11-21T05:58:35;0.30;99.90
53876;DHT22;39789;53.216;5.624;2022-11-21T06:01:01;0.60;99.90
53876;DHT22;39789;53.216;5.624;2022-11-21T06:03:30;1.20;99.90
53876;DHT22;39789;53.216;5.624;2022-11-21T06:06:08;1.30;99.90
53876;DHT22;39789;53.216;5.624;2022-11-21T06:08:44;0.50;99.90
53876;DHT22;39789;53.216;5.624;2022-11-21T06:11:15;1.40;99.90
53876;DHT22;39789;53.216;5.624;2022-11-21T06:13:41;0.50;99.90
53876;DHT22;39789;53.216;5.624;2022-11-21T06:16:10;0.60;99.90
53876;DHT22;39789;53.216;5.624;2022-11-21T06:18:38;1.70;99.90
53876;DHT22;39789;53.216;5.624;2022-11-21T06:21:11;0.60;99.90
53876;DHT22;39789;53.216;5.624;2022-11-21T06:23:37;1.10;99.90
53876;DHT22;39789;53.216;5.624;2022-11-21T06:26:04;0.60;99.90
53876;DHT22;39789;53.216;5.624;2022-11-21T06:28:33;0.50;99.90
53876;DHT22;39789;53.216;5.624;2022-11-21T06:31:06;0.50;99.90
53876;DHT22;39789;53.216;5.624;2022-11-21T06:33:33;0.50;99.90
53876;DHT22;39789;53.216;5.624;2022-11-21T06:36:07;1.00;99.90
53876;DHT22;39789;53.216;5.624;2022-11-21T06:38:34;0.50;99.90
53876;DHT22;39789;53.216;5.624;2022-11-21T06:41:06;0.50;99.90
53876;DHT22;39789;53.216;5.624;2022-11-21T06:43:32;0.50;99.90
53876;DHT22;39789;53.216;5.624;2022-11-21T06:45:58;0.50;99.90
53876;DHT22;39789;53.216;5.624;2022-11-21T06:48:24;1.60;99.90
53876;DHT22;39789;53.216;5.624;2022-11-21T06:50:50;1.10;99.90
53876;DHT22;39789;53.216;5.624;2022-11-21T06:53:16;1.40;99.90
53876;DHT22;39789;53.216;5.624;2022-11-21T06:55:41;1.10;99.90
53876;DHT22;39789;53.216;5.624;2022-11-21T06:58:07;1.30;99.90
53876;DHT22;39789;53.216;5.624;2022-11-21T07:00:32;1.50;99.90
53876;DHT22;39789;53.216;5.624;2022-11-21T07:03:02;0.50;99.90
53876;DHT22;39789;53.216;5.624;2022-11-21T07:05:28;0.90;99.90
53876;DHT22;39789;53.216;5.624;2022-11-21T07:08:01;1.00;99.90
53876;DHT22;39789;53.216;5.624;2022-11-21T07:10:27;1.10;99.90
53876;DHT22;39789;53.216;5.624;2022-11-21T07:12:57;1.10;99.90
53876;DHT22;39789;53.216;5.624;2022-11-21T07:15:42;1.50;99.90
53876;DHT22;39789;53.216;5.624;2022-11-21T07:18:08;0.70;99.90
53876;DHT22;39789;53.216;5.624;2022-11-21T07:20:33;1.60;99.90
53876;DHT22;39789;53.216;5.624;2022-11-21T07:22:59;0.60;99.90
53876;DHT22;39789;53.216;5.624;2022-11-21T07:25:25;1.00;99.90
53876;DHT22;39789;53.216;5.624;2022-11-21T07:27:51;0.70;99.90
53876;DHT22;39789;53.216;5.624;2022-11-21T07:30:16;1.20;99.90
53876;DHT22;39789;53.216;5.624;2022-11-21T07:32:42;1.60;99.90
53876;DHT22;39789;53.216;5.624;2022-11-21T07:35:08;1.00;99.90
53876;DHT22;39789;53.216;5.624;2022-11-21T07:37:38;0.70;99.90
53876;DHT22;39789;53.216;5.624;2022-11-21T07:40:06;1.00;99.90
53876;DHT22;39789;53.216;5.624;2022-11-21T07:42:32;0.70;99.90
53876;DHT22;39789;53.216;5.624;2022-11-21T07:44:58;0.70;99.90
53876;DHT22;39789;53.216;5.624;2022-11-21T07:47:23;1.60;99.90
53876;DHT22;39789;53.216;5.624;2022-11-21T07:49:49;0.70;99.90
53876;DHT22;39789;53.216;5.624;2022-11-21T07:52:14;0.80;99.90
53876;DHT22;39789;53.216;5.624;2022-11-21T07:54:40;0.80;99.90
53876;DHT22;39789;53.216;5.624;2022-11-21T07:57:05;0.80;99.90
53876;DHT22;39789;53.216;5.624;2022-11-21T07:59:31;0.80;99.90
53876;DHT22;39789;53.216;5.624;2022-11-21T08:01:57;0.70;99.90
53876;DHT22;39789;53.216;5.624;2022-11-21T08:04:22;1.20;99.90
53876;DHT22;39789;53.216;5.624;2022-11-21T08:06:48;1.70;99.90
53876;DHT22;39789;53.216;5.624;2022-11-21T08:09:13;1.00;99.90
53876;DHT22;39789;53.216;5.624;2022-11-21T08:11:39;1.40;99.90
53876;DHT22;39789;53.216;5.624;2022-11-21T08:14:04;1.10;99.90
53876;DHT22;39789;53.216;5.624;2022-11-21T08:16:30;1.10;99.90
53876;DHT22;39789;53.216;5.624;2022-11-21T08:18:58;1.60;99.90
53876;DHT22;39789;53.216;5.624;2022-11-21T08:21:23;0.90;99.90
53876;DHT22;39789;53.216;5.624;2022-11-21T08:23:49;1.10;99.90
53876;DHT22;39789;53.216;5.624;2022-11-21T08:26:15;1.50;99.90
53876;DHT22;39789;53.216;5.624;2022-11-21T08:28:41;1.90;99.90
53876;DHT22;39789;53.216;5.624;2022-11-21T08:31:06;0.90;99.90
53876;DHT22;39789;53.216;5.624;2022-11-21T08:33:32;0.90;99.90
53876;DHT22;39789;53.216;5.624;2022-11-21T08:35:58;1.60;99.90
53876;DHT22;39789;53.216;5.624;2022-11-21T08:38:27;1.80;99.90
53876;DHT22;39789;53.216;5.624;2022-11-21T08:40:53;1.80;99.90
53876;DHT22;39789;53.216;5.624;2022-11-21T08:43:38;1.70;99.90
53876;DHT22;39789;53.216;5.624;2022-11-21T08:46:04;1.10;99.90
53876;DHT22;39789;53.216;5.624;2022-11-21T08:48:29;1.20;99.90
53876;DHT22;39789;53.216;5.624;2022-11-21T08:50:58;2.10;99.90
53876;DHT22;39789;53.216;5.624;2022-11-21T08:53:23;1.30;99.90
53876;DHT22;39789;53.216;5.624;2022-11-21T08:55:49;1.50;99.90
53876;DHT22;39789;53.216;5.624;2022-11-21T08:58:15;1.40;99.90
53876;DHT22;39789;53.216;5.624;2022-11-21T09:00:40;1.30;99.90
53876;DHT22;39789;53.216;5.624;2022-11-21T09:03:06;1.40;99.90
53876;DHT22;39789;53.216;5.624;2022-11-21T09:05:32;1.40;99.90
53876;DHT22;39789;53.216;5.624;2022-11-21T09:07:58;2.00;99.90
53876;DHT22;39789;53.216;5.624;2022-11-21T09:10:25;1.50;99.90
53876;DHT22;39789;53.216;5.624;2022-11-21T09:12:51;2.00;99.90
53876;DHT22;39789;53.216;5.624;2022-11-21T09:15:16;1.50;99.90
53876;DHT22;39789;53.216;5.624;2022-11-21T09:18:01;1.60;99.90
53876;DHT22;39789;53.216;5.624;2022-11-21T09:20:32;1.70;99.90
53876;DHT22;39789;53.216;5.624;2022-11-21T09:23:03;1.70;99.90
53876;DHT22;39789;53.216;5.624;2022-11-21T09:25:29;1.70;99.90
53876;DHT22;39789;53.216;5.624;2022-11-21T09:27:58;2.00;99.90
53876;DHT22;39789;53.216;5.624;2022-11-21T09:30:24;2.00;99.90
53876;DHT22;39789;53.216;5.624;2022-11-21T09:32:49;1.80;99.90
53876;DHT22;39789;53.216;5.624;2022-11-21T09:35:15;2.10;99.90
53876;DHT22;39789;53.216;5.624;2022-11-21T09:37:40;1.90;99.90
53876;DHT22;39789;53.216;5.624;2022-11-21T09:40:13;2.00;99.90
53876;DHT22;39789;53.216;5.624;2022-11-21T09:45:47;2.10;99.90
53876;DHT22;39789;53.216;5.624;2022-11-21T09:48:23;2.20;99.90
53876;DHT22;39789;53.216;5.624;2022-11-21T09:51:00;2.30;99.90
53876;DHT22;39789;53.216;5.624;2022-11-21T09:53:31;2.40;99.90
53876;DHT22;39789;53.216;5.624;2022-11-21T09:56:03;2.40;99.90
53876;DHT22;39789;53.216;5.624;2022-11-21T09:58:43;2.50;99.90
53876;DHT22;39789;53.216;5.624;2022-11-21T10:01:14;2.60;99.90
53876;DHT22;39789;53.216;5.624;2022-11-21T10:03:49;2.60;99.90
53876;DHT22;39789;53.216;5.624;2022-11-21T10:06:20;2.60;99.90
53876;DHT22;39789;53.216;5.624;2022-11-21T10:11:40;2.60;99.90
53876;DHT22;39789;53.216;5.624;2022-11-21T10:17:34;2.50;99.90
53876;DHT22;39789;53.216;5.624;2022-11-21T10:28:52;2.60;99.90
53876;DHT22;39789;53.216;5.624;2022-11-21T10:31:19;2.70;99.90
53876;DHT22;39789;53.216;5.624;2022-11-21T10:33:45;2.70;99.90
53876;DHT22;39789;53.216;5.624;2022-11-21T10:36:26;2.70;99.90
53876;DHT22;39789;53.216;5.624;2022-11-21T10:38:59;2.70;99.90
53876;DHT22;39789;53.216;5.624;2022-11-21T10:41:41;2.70;99.90
53876;DHT22;39789;53.216;5.624;2022-11-21T10:44:25;2.60;99.90
53876;DHT22;39789;53.216;5.624;2022-11-21T10:47:23;2.60;99.90
53876;DHT22;39789;53.216;5.624;2022-11-21T10:55:12;2.80;99.90
53876;DHT22;39789;53.216;5.624;2022-11-21T10:57:44;2.80;99.90
53876;DHT22;39789;53.216;5.624;2022-11-21T11:02:35;2.90;99.90
53876;DHT22;39789;53.216;5.624;2022-11-21T11:05:17;2.80;99.90
53876;DHT22;39789;53.216;5.624;2022-11-21T11:10:32;2.90;99.90
53876;DHT22;39789;53.216;5.624;2022-11-21T11:12:58;2.90;99.90
53876;DHT22;39789;53.216;5.624;2022-11-21T11:15:55;3.00;99.90
53876;DHT22;39789;53.216;5.624;2022-11-21T11:18:23;3.10;99.90
53876;DHT22;39789;53.216;5.624;2022-11-21T11:20:49;3.20;99.90
53876;DHT22;39789;53.216;5.624;2022-11-21T11:23:23;3.30;99.90
53876;DHT22;39789;53.216;5.624;2022-11-21T11:25:51;3.40;99.90
53876;DHT22;39789;53.216;5.624;2022-11-21T11:28:18;3.50;99.90
53876;DHT22;39789;53.216;5.624;2022-11-21T11:30:45;3.50;99.90
53876;DHT22;39789;53.216;5.624;2022-11-21T11:36:38;3.70;99.90
53876;DHT22;39789;53.216;5.624;2022-11-21T11:39:16;3.80;99.90
53876;DHT22;39789;53.216;5.624;2022-11-21T11:48:47;3.70;99.90
53876;DHT22;39789;53.216;5.624;2022-11-21T11:51:29;3.70;99.90
53876;DHT22;39789;53.216;5.624;2022-11-21T11:54:01;3.60;99.90
53876;DHT22;39789;53.216;5.624;2022-11-21T11:56:33;3.60;99.90
53876;DHT22;39789;53.216;5.624;2022-11-21T11:59:10;3.60;99.90
53876;DHT22;39789;53.216;5.624;2022-11-21T12:01:41;3.70;99.90
53876;DHT22;39789;53.216;5.624;2022-11-21T12:04:14;3.70;99.90
53876;DHT22;39789;53.216;5.624;2022-11-21T12:39:56;3.90;99.90
53876;DHT22;39789;53.216;5.624;2022-11-21T12:42:33;3.90;99.90
53876;DHT22;39789;53.216;5.624;2022-11-21T12:45:23;4.00;99.90
53876;DHT22;39789;53.216;5.624;2022-11-21T12:54:24;4.00;99.90
53876;DHT22;39789;53.216;5.624;2022-11-21T13:04:57;4.00;99.90
53876;DHT22;39789;53.216;5.624;2022-11-21T13:07:25;4.00;99.90
53876;DHT22;39789;53.216;5.624;2022-11-21T13:09:54;4.00;99.90
53876;DHT22;39789;53.216;5.624;2022-11-21T13:12:37;4.10;99.90
53876;DHT22;39789;53.216;5.624;2022-11-21T13:15:23;4.10;99.90
53876;DHT22;39789;53.216;5.624;2022-11-21T13:17:58;4.20;99.90
53876;DHT22;39789;53.216;5.624;2022-11-21T13:20:38;4.20;99.90
53876;DHT22;39789;53.216;5.624;2022-11-21T13:23:40;4.20;99.90
53876;DHT22;39789;53.216;5.624;2022-11-21T13:28:50;4.20;99.90
53876;DHT22;39789;53.216;5.624;2022-11-21T13:31:33;4.30;99.90
53876;DHT22;39789;53.216;5.624;2022-11-21T13:34:00;4.30;99.90
53876;DHT22;39789;53.216;5.624;2022-11-21T13:55:07;4.20;99.90
53876;DHT22;39789;53.216;5.624;2022-11-21T14:00:26;4.10;99.90
53876;DHT22;39789;53.216;5.624;2022-11-21T14:08:32;4.00;99.90
53876;DHT22;39789;53.216;5.624;2022-11-21T14:11:18;4.00;99.90
53876;DHT22;39789;53.216;5.624;2022-11-21T14:13:47;4.00;99.90
53876;DHT22;39789;53.216;5.624;2022-11-21T14:16:27;4.00;99.90
53876;DHT22;39789;53.216;5.624;2022-11-21T14:18:55;3.90;99.90
53876;DHT22;39789;53.216;5.624;2022-11-21T14:21:25;3.90;99.90
53876;DHT22;39789;53.216;5.624;2022-11-21T14:24:03;3.90;99.90
53876;DHT22;39789;53.216;5.624;2022-11-21T14:26:39;3.80;99.90
53876;DHT22;39789;53.216;5.624;2022-11-21T14:29:36;3.80;99.90
53876;DHT22;39789;53.216;5.624;2022-11-21T14:32:02;3.70;99.90
53876;DHT22;39789;53.216;5.624;2022-11-21T14:34:30;3.70;99.90
53876;DHT22;39789;53.216;5.624;2022-11-21T14:37:02;3.70;99.90
53876;DHT22;39789;53.216;5.624;2022-11-21T14:39:30;3.60;99.90
53876;DHT22;39789;53.216;5.624;2022-11-21T14:41:59;3.70;99.90
53876;DHT22;39789;53.216;5.624;2022-11-21T14:44:26;3.60;99.90
53876;DHT22;39789;53.216;5.624;2022-11-21T14:47:11;3.70;99.90
53876;DHT22;39789;53.216;5.624;2022-11-21T14:49:38;3.70;99.90
53876;DHT22;39789;53.216;5.624;2022-11-21T14:54:45;3.70;99.90
53876;DHT22;39789;53.216;5.624;2022-11-21T14:57:20;3.60;99.90
53876;DHT22;39789;53.216;5.624;2022-11-21T14:59:47;3.60;99.90
53876;DHT22;39789;53.216;5.624;2022-11-21T15:02:16;3.60;99.90
53876;DHT22;39789;53.216;5.624;2022-11-21T15:04:43;3.60;99.90
53876;DHT22;39789;53.216;5.624;2022-11-21T15:07:21;3.60;99.90
53876;DHT22;39789;53.216;5.624;2022-11-21T15:09:47;3.60;99.90
53876;DHT22;39789;53.216;5.624;2022-11-21T15:12:19;3.60;99.90
53876;DHT22;39789;53.216;5.624;2022-11-21T15:15:32;3.60;99.90
53876;DHT22;39789;53.216;5.624;2022-11-21T15:17:38;3.60;99.90
53876;DHT22;39789;53.216;5.624;2022-11-21T15:22:36;3.60;99.90
53876;DHT22;39789;53.216;5.624;2022-11-21T15:25:21;3.60;99.90
53876;DHT22;39789;53.216;5.624;2022-11-21T15:27:51;2.90;99.90
53876;DHT22;39789;53.216;5.624;2022-11-21T15:30:33;3.60;99.90
53876;DHT22;39789;53.216;5.624;2022-11-21T15:33:10;3.60;99.90
53876;DHT22;39789;53.216;5.624;2022-11-21T15:35:40;3.60;99.90
53876;DHT22;39789;53.216;5.624;2022-11-21T15:38:31;3.60;99.90
53876;DHT22;39789;53.216;5.624;2022-11-21T15:41:04;3.60;99.90
53876;DHT22;39789;53.216;5.624;2022-11-21T15:43:52;3.60;99.90
53876;DHT22;39789;53.216;5.624;2022-11-21T15:46:38;3.60;99.90
53876;DHT22;39789;53.216;5.624;2022-11-21T15:49:08;3.60;99.90
53876;DHT22;39789;53.216;5.624;2022-11-21T15:51:36;3.60;99.90
53876;DHT22;39789;53.216;5.624;2022-11-21T15:54:09;3.60;99.90
53876;DHT22;39789;53.216;5.624;2022-11-21T15:56:35;3.60;99.90
53876;DHT22;39789;53.216;5.624;2022-11-21T15:59:00;3.60;99.90
53876;DHT22;39789;53.216;5.624;2022-11-21T16:01:28;3.60;99.90
53876;DHT22;39789;53.216;5.624;2022-11-21T16:04:02;3.60;99.90
53876;DHT22;39789;53.216;5.624;2022-11-21T16:06:29;3.60;99.90
53876;DHT22;39789;53.216;5.624;2022-11-21T16:08:55;3.60;99.90
53876;DHT22;39789;53.216;5.624;2022-11-21T16:11:35;3.60;99.90
53876;DHT22;39789;53.216;5.624;2022-11-21T16:14:06;3.60;99.90
53876;DHT22;39789;53.216;5.624;2022-11-21T16:16:37;3.60;99.90
53876;DHT22;39789;53.216;5.624;2022-11-21T16:19:04;3.60;99.90
53876;DHT22;39789;53.216;5.624;2022-11-21T16:21:29;3.60;99.90
53876;DHT22;39789;53.216;5.624;2022-11-21T16:23:55;3.60;99.90
53876;DHT22;39789;53.216;5.624;2022-11-21T16:26:21;3.60;99.90
53876;DHT22;39789;53.216;5.624;2022-11-21T16:28:53;3.60;99.90
53876;DHT22;39789;53.216;5.624;2022-11-21T16:31:28;3.60;99.90
53876;DHT22;39789;53.216;5.624;2022-11-21T16:33:54;3.60;99.90
53876;DHT22;39789;53.216;5.624;2022-11-21T16:36:22;3.70;99.90
53876;DHT22;39789;53.216;5.624;2022-11-21T16:38:48;3.70;99.90
53876;DHT22;39789;53.216;5.624;2022-11-21T16:41:16;3.70;99.90
53876;DHT22;39789;53.216;5.624;2022-11-21T16:43:48;3.70;99.90
53876;DHT22;39789;53.216;5.624;2022-11-21T16:46:14;3.70;99.90
53876;DHT22;39789;53.216;5.624;2022-11-21T16:48:40;3.80;99.90
53876;DHT22;39789;53.216;5.624;2022-11-21T16:51:14;3.80;99.90
53876;DHT22;39789;53.216;5.624;2022-11-21T16:53:41;3.80;99.90
53876;DHT22;39789;53.216;5.624;2022-11-21T16:56:08;3.80;99.90
53876;DHT22;39789;53.216;5.624;2022-11-21T16:58:35;3.80;99.90
53876;DHT22;39789;53.216;5.624;2022-11-21T17:01:15;3.80;99.90
53876;DHT22;39789;53.216;5.624;2022-11-21T17:03:45;3.90;99.90
53876;DHT22;39789;53.216;5.624;2022-11-21T17:06:18;4.80;99.90
53876;DHT22;39789;53.216;5.624;2022-11-21T17:08:43;3.90;99.90
53876;DHT22;39789;53.216;5.624;2022-11-21T17:11:12;3.90;99.90
53876;DHT22;39789;53.216;5.624;2022-11-21T17:13:38;3.90;99.90
53876;DHT22;39789;53.216;5.624;2022-11-21T17:16:05;3.90;99.90
53876;DHT22;39789;53.216;5.624;2022-11-21T17:18:31;3.90;99.90
53876;DHT22;39789;53.216;5.624;2022-11-21T17:20:56;3.90;99.90
53876;DHT22;39789;53.216;5.624;2022-11-21T17:23:22;3.90;99.90
53876;DHT22;39789;53.216;5.624;2022-11-21T17:25:47;3.90;99.90
53876;DHT22;39789;53.216;5.624;2022-11-21T17:28:13;3.90;99.90
53876;DHT22;39789;53.216;5.624;2022-11-21T17:30:39;3.90;99.90
53876;DHT22;39789;53.216;5.624;2022-11-21T17:33:09;3.90;99.90
53876;DHT22;39789;53.216;5.624;2022-11-21T17:35:34;3.90;99.90
53876;DHT22;39789;53.216;5.624;2022-11-21T17:38:00;3.90;99.90
53876;DHT22;39789;53.216;5.624;2022-11-21T17:40:25;3.90;99.90
53876;DHT22;39789;53.216;5.624;2022-11-21T17:42:51;4.00;99.90
53876;DHT22;39789;53.216;5.624;2022-11-21T17:45:16;4.00;99.90
53876;DHT22;39789;53.216;5.624;2022-11-21T17:47:42;4.00;99.90
53876;DHT22;39789;53.216;5.624;2022-11-21T17:50:08;4.00;99.90
53876;DHT22;39789;53.216;5.624;2022-11-21T17:52:34;4.10;99.90
53876;DHT22;39789;53.216;5.624;2022-11-21T17:54:59;4.10;99.90
53876;DHT22;39789;53.216;5.624;2022-11-21T17:57:25;4.10;99.90
53876;DHT22;39789;53.216;5.624;2022-11-21T17:59:51;4.10;99.90